• Join FlightAware (Why Join?)
  • Login
  • US Flag 
Trick or treat! (Boo!!) 
03:36PM EDT


 

Airport Tracker/Info


-or-


 

Live Flight TrackerFlight Track Log ✈ N724HS ✈ 15-Jun-2014 ✈ MYCH - KFLL

Flight Track Log - Related Links

Times and Time Zones

All times are in EDT time to prevent confusion due to time zone crossing. See the N724HS flight status page for this flight to view local times or setup timezone preferences in your user account.

Time Position Orientation Groundspeed Altitude Reporting Facility
EDT Latitude Longitude Course Direction KTS MPH feet Rate Location/Type
04:29PM 24.2803 -75.7106 294° West 199 229 6,200  Level Miami Center
04:30PM 24.3031 -75.7667 294° West 199 229 7,500 1,200 Climbing Miami Center
04:31PM 24.3253 -75.8219 294° West 199 229 8,700 1,200 Climbing Miami Center
04:32PM 24.3536 -75.8889 295° West 199 229 10,000 1,140 Climbing Miami Center
04:33PM 24.3728 -75.9478 290° West 199 229 11,100 1,080 Climbing Miami Center
04:34PM 24.3900 -76.0097 287° West 203 234 12,300 1,020 Climbing Miami Center
04:35PM 24.4078 -76.0714 288° West 208 239 13,300 900 Climbing Miami Center
04:36PM 24.4264 -76.1331 288° West 209 241 14,200 900 Climbing Miami Center
04:37PM 24.4486 -76.2075 288° West 211 243 15,200 780 Climbing Miami Center
04:38PM 24.4667 -76.2692 288° West 211 243 15,900 360 Climbing Miami Center
04:39PM 24.4861 -76.3342 288° West 214 246 16,000  Climbing Miami Center
04:40PM 24.5072 -76.4044 288° West 227 261 16,000  Level Miami Center
04:41PM 24.5283 -76.4767 288° West 238 274 16,000  Level Miami Center
04:42PM 24.5500 -76.5506 288° West 245 282 16,000  Level Miami Center
04:43PM 24.5708 -76.6236 287° West 247 284 16,000  Level Miami Center
04:44PM 24.5961 -76.7114 288° West 248 285 16,000  Level Miami Center
04:45PM 24.6172 -76.7858 287° West 249 287 16,000  Level Miami Center
04:46PM 24.6397 -76.8592 289° West 249 287 16,000  Level Miami Center
04:47PM 24.6817 -76.9194 307° West 250 288 16,000  Level Miami Center
04:48PM 24.7236 -76.9803 307° West 250 288 16,000  Level Miami Center
04:49PM 24.7628 -77.0453 304° West 250 288 16,000  Level Miami Center
04:50PM 24.8114 -77.1197 306° West 250 288 16,000  Level Miami Center
04:51PM 24.8517 -77.1831 305° West 250 288 16,000  Level Miami Center
04:52PM 24.8931 -77.2456 306° West 250 288 16,000  Level Miami Center
04:53PM 24.9342 -77.3086 306° West 250 288 16,000  Level Miami Center
04:55PM 24.9742 -77.3717 305° West 250 288 16,000  Level Miami Center
04:56PM 25.0153 -77.4339 306° West 251 289 16,000  Level Miami Center
04:57PM 25.0572 -77.4964 307° West 251 289 16,000  Level Miami Center
04:58PM 25.1119 -77.5672 310° West 251 289 16,000  Level Miami Center
04:59PM 25.1550 -77.6278 308° West 251 289 16,000  Level Miami Center
05:00PM 25.1994 -77.6858 310° West 251 289 16,000  Level Miami Center
05:01PM 25.2428 -77.7467 308° West 251 289 16,000  Level Miami Center
05:02PM 25.2872 -77.8061 310° West 250 288 16,000  Level Miami Center
05:03PM 25.3231 -77.8681 303° West 247 284 16,000  Level Miami Center
05:04PM 25.3389 -77.9450 283° West 244 281 16,000  Level Miami Center
05:05PM 25.3581 -78.0222 285° West 251 289 16,000  Level Miami Center
05:06PM 25.3869 -78.1081 290° West 251 289 16,000  Level Miami Center
05:07PM 25.4086 -78.1819 288° West 251 289 16,000  Level Miami Center
05:08PM 25.4339 -78.2547 291° West 251 289 16,000  Level Miami Center
05:09PM 25.4572 -78.3272 290° West 251 289 16,000  Level Miami Center
05:10PM 25.4792 -78.4003 288° West 251 289 16,000  Level Miami Center
05:11PM 25.5017 -78.4736 289° West 251 289 16,000  Level Miami Center
05:12PM 25.5297 -78.5603 290° West 251 289 16,000  Level Miami Center
05:13PM 25.5506 -78.6292 289° West 251 289 16,000 -540 Level Miami Center
05:14PM 25.5731 -78.7103 287° West 260 299 15,000 -960 Descending Miami Center
05:15PM 25.5967 -78.7864 289° West 270 311 14,100 -900 Descending Miami Center
05:16PM 25.6200 -78.8619 289° West 264 304 13,200 -840 Descending Miami Center
05:17PM 25.6419 -78.9375 288° West 262 302 12,400 -1,080 Descending Miami Center
05:19PM 25.6858 -79.0733 290° West 268 308 10,400 -1,260 Descending Miami Center
05:20PM 25.7081 -79.1508 288° West 267 307 9,100 -1,320 Descending Miami Center
05:21PM 25.7306 -79.2256 288° West 262 302 7,800 -1,260 Descending Miami Center
05:22PM 25.7508 -79.3000 287° West 259 298 6,600 -1,260 Descending Miami Center
05:23PM 25.7739 -79.3756 289° West 259 298 5,300 -1,380 Descending Miami Center
05:24PM 25.7964 -79.4483 289° West 253 291 4,100 -1,200 Descending Miami Center
05:24PM 25.8017 -79.4633 291° West 254 292 4,100 -180 Level Miami Center
05:24PM 25.8086 -79.4908 286° West 247 284 4,000  Descending Miami Center
05:25PM 25.8217 -79.5350 288° West 247 284 4,100  Climbing Miami Center
05:25PM 25.8297 -79.5617 289° West 238 274 4,000 -120 Descending Miami Center
05:26PM 25.8433 -79.6039 290° West 239 275 4,000  Level Miami Center
05:26PM 25.8506 -79.6350 284° West 238 274 4,000  Level Miami Center
05:27PM 25.8672 -79.6711 297° West 237 273 4,000  Level Miami Center
05:27PM 25.8803 -79.6994 297° West 237 273 4,000  Level Miami Center
05:28PM 25.8956 -79.7361 295° West 236 272 4,000  Level Miami Center
05:29PM 25.9094 -79.7689 295° West 220 253 4,000  Level Miami Center
05:29PM 25.9219 -79.7975 296° West 225 259 4,000  Level Miami Center
05:30PM 25.9389 -79.8381 295° West 239 275 4,000 -420 Level Miami Center
05:30PM 25.9558 -79.8789 295° West 240 276 3,600 -840 Descending Miami Center
05:31PM 25.9683 -79.9075 296° West 250 288 3,200 -600 Descending Miami Center
05:31PM 25.9864 -79.9486 296° West 247 284 3,000 -240 Descending Miami Center
05:32PM 25.9869 -79.9806 271° West 237 273 3,000  Level Miami Center
05:32PM 25.9889 -80.0189 273° West 230 265 3,000  Level Miami Center
05:33PM 25.9889 -80.0503 270° West 223 257 3,000  Level Miami Center
05:33PM 25.9908 -80.0869 273° West 224 258 3,000  Level Miami Center
05:34PM 25.9911 -80.1153 271° West 203 234 3,000  Level Miami Center
05:34PM 25.9919 -80.1483 272° West 204 235 3,000  Level Miami Center
05:35PM 25.9914 -80.1803 269° West 196 226 3,000  Level Miami Center
05:35PM 25.9933 -80.2083 274° West 199 229 3,000  Level Miami Center
05:36PM 25.9981 -80.2386 280° West 190 219 3,000  Level Miami Center
05:36PM 26.0142 -80.2742 297° West 190 219 3,000  Level Miami Center
05:37PM 26.0242 -80.2894 306° West 195 224 3,000  Level Miami Center
05:37PM 26.0525 -80.2811 15° North 156 180 3,000  Level Miami Center
05:38PM 26.0647 -80.2764 19° North 130 150 3,000 -240 Level Miami Center
05:38PM 26.0858 -80.2631 30° Northeast 132 152 2,800 -660 Descending Miami Center
05:39PM 26.0772 -80.2472 121° Southeast 122 140 2,300 -1,020 Descending Miami Center
05:40PM 26.0656 -80.2328 132° Southeast 125 144 1,800 -1,020 Descending Miami Center
05:40PM 26.0664 -80.2186 86° East 119 137 1,400 -900 Descending Miami Center
05:41PM 26.0808 -80.2064 37° Northeast 118 136 900 -840 Descending Miami Center
05:41PM 26.0867 -80.1969 55° Northeast 106 122 600 -780 Descending Miami Center
05:42PM 26.0767 -80.1739 116° Southeast 106 122 100 -660 Descending Miami Center